sensor_id;sensor_type;location;lat;lon;timestamp;P1;durP1;ratioP1;P2;durP2;ratioP2
17372;SDS011;8803;48.116;11.590;2022-08-19T00:01:22;4.20;;;3.80;;
17372;SDS011;8803;48.116;11.590;2022-08-19T00:03:34;4.33;;;4.03;;
17372;SDS011;8803;48.116;11.590;2022-08-19T00:05:38;4.23;;;3.93;;
17372;SDS011;8803;48.116;11.590;2022-08-19T00:07:43;4.17;;;3.87;;
17372;SDS011;8803;48.116;11.590;2022-08-19T00:09:56;4.33;;;4.00;;
17372;SDS011;8803;48.116;11.590;2022-08-19T00:12:00;3.77;;;3.47;;
17372;SDS011;8803;48.116;11.590;2022-08-19T00:14:16;4.42;;;4.03;;
17372;SDS011;8803;48.116;11.590;2022-08-19T00:16:22;4.73;;;4.20;;
17372;SDS011;8803;48.116;11.590;2022-08-19T00:18:34;3.70;;;3.40;;
17372;SDS011;8803;48.116;11.590;2022-08-19T00:20:38;8.20;;;4.33;;
17372;SDS011;8803;48.116;11.590;2022-08-19T00:22:42;4.47;;;4.03;;
17372;SDS011;8803;48.116;11.590;2022-08-19T00:24:55;5.15;;;4.75;;
17372;SDS011;8803;48.116;11.590;2022-08-19T00:26:59;3.90;;;3.60;;
17372;SDS011;8803;48.116;11.590;2022-08-19T00:29:13;5.13;;;4.57;;
17372;SDS011;8803;48.116;11.590;2022-08-19T00:31:19;4.40;;;4.00;;
17372;SDS011;8803;48.116;11.590;2022-08-19T00:33:32;4.85;;;4.45;;
17372;SDS011;8803;48.116;11.590;2022-08-19T00:35:36;3.90;;;3.60;;
17372;SDS011;8803;48.116;11.590;2022-08-19T00:37:40;4.67;;;4.17;;
17372;SDS011;8803;48.116;11.590;2022-08-19T00:39:44;4.60;;;4.20;;
17372;SDS011;8803;48.116;11.590;2022-08-19T00:41:48;5.10;;;4.60;;
17372;SDS011;8803;48.116;11.590;2022-08-19T00:44:02;4.62;;;4.22;;
17372;SDS011;8803;48.116;11.590;2022-08-19T00:46:08;4.33;;;3.90;;
17372;SDS011;8803;48.116;11.590;2022-08-19T00:48:12;4.67;;;4.28;;
17372;SDS011;8803;48.116;11.590;2022-08-19T00:50:17;4.77;;;4.47;;
17372;SDS011;8803;48.116;11.590;2022-08-19T00:52:32;7.00;;;5.00;;
17372;SDS011;8803;48.116;11.590;2022-08-19T00:54:38;4.43;;;4.10;;
17372;SDS011;8803;48.116;11.590;2022-08-19T00:56:50;4.83;;;4.42;;
17372;SDS011;8803;48.116;11.590;2022-08-19T00:58:55;4.72;;;4.33;;
17372;SDS011;8803;48.116;11.590;2022-08-19T01:01:02;5.00;;;4.60;;
17372;SDS011;8803;48.116;11.590;2022-08-19T01:03:09;4.92;;;4.53;;
17372;SDS011;8803;48.116;11.590;2022-08-19T01:05:25;5.20;;;4.80;;
17372;SDS011;8803;48.116;11.590;2022-08-19T01:07:31;4.90;;;4.50;;
17372;SDS011;8803;48.116;11.590;2022-08-19T01:09:46;5.00;;;4.60;;
17372;SDS011;8803;48.116;11.590;2022-08-19T01:11:50;4.87;;;4.43;;
17372;SDS011;8803;48.116;11.590;2022-08-19T01:14:03;5.15;;;4.65;;
17372;SDS011;8803;48.116;11.590;2022-08-19T01:16:08;5.53;;;5.05;;
17372;SDS011;8803;48.116;11.590;2022-08-19T01:18:14;5.30;;;4.87;;
17372;SDS011;8803;48.116;11.590;2022-08-19T01:20:20;5.40;;;5.00;;
17372;SDS011;8803;48.116;11.590;2022-08-19T01:24:38;4.90;;;4.50;;
17372;SDS011;8803;48.116;11.590;2022-08-19T01:26:43;5.67;;;5.17;;
17372;SDS011;8803;48.116;11.590;2022-08-19T01:28:50;5.43;;;4.90;;
17372;SDS011;8803;48.116;11.590;2022-08-19T01:30:55;5.73;;;5.30;;
17372;SDS011;8803;48.116;11.590;2022-08-19T01:33:00;6.50;;;5.90;;
17372;SDS011;8803;48.116;11.590;2022-08-19T01:35:13;5.00;;;4.60;;
17372;SDS011;8803;48.116;11.590;2022-08-19T01:37:17;5.43;;;4.93;;
17372;SDS011;8803;48.116;11.590;2022-08-19T01:39:22;5.87;;;5.27;;
17372;SDS011;8803;48.116;11.590;2022-08-19T01:41:35;5.37;;;4.97;;
17372;SDS011;8803;48.116;11.590;2022-08-19T01:43:49;6.03;;;5.43;;
17372;SDS011;8803;48.116;11.590;2022-08-19T01:45:53;6.25;;;5.50;;
17372;SDS011;8803;48.116;11.590;2022-08-19T01:48:06;6.37;;;5.87;;
17372;SDS011;8803;48.116;11.590;2022-08-19T01:50:10;5.85;;;5.35;;
17372;SDS011;8803;48.116;11.590;2022-08-19T01:52:23;5.57;;;5.07;;
17372;SDS011;8803;48.116;11.590;2022-08-19T01:54:28;5.53;;;5.03;;
17372;SDS011;8803;48.116;11.590;2022-08-19T01:56:40;6.22;;;5.62;;
17372;SDS011;8803;48.116;11.590;2022-08-19T01:58:45;5.90;;;5.43;;
17372;SDS011;8803;48.116;11.590;2022-08-19T02:00:59;5.08;;;4.67;;
17372;SDS011;8803;48.116;11.590;2022-08-19T02:03:02;6.35;;;5.30;;
17372;SDS011;8803;48.116;11.590;2022-08-19T02:05:15;4.77;;;4.37;;
17372;SDS011;8803;48.116;11.590;2022-08-19T02:07:21;4.73;;;4.33;;
17372;SDS011;8803;48.116;11.590;2022-08-19T02:09:34;5.93;;;5.37;;
17372;SDS011;8803;48.116;11.590;2022-08-19T02:11:38;5.22;;;4.83;;
17372;SDS011;8803;48.116;11.590;2022-08-19T02:13:51;5.08;;;4.67;;
17372;SDS011;8803;48.116;11.590;2022-08-19T02:15:55;5.60;;;5.10;;
17372;SDS011;8803;48.116;11.590;2022-08-19T02:17:59;5.00;;;4.60;;
17372;SDS011;8803;48.116;11.590;2022-08-19T02:20:04;4.80;;;4.40;;
17372;SDS011;8803;48.116;11.590;2022-08-19T02:22:18;5.25;;;4.75;;
17372;SDS011;8803;48.116;11.590;2022-08-19T02:24:22;5.27;;;4.77;;
17372;SDS011;8803;48.116;11.590;2022-08-19T02:26:35;4.60;;;4.20;;
17372;SDS011;8803;48.116;11.590;2022-08-19T02:28:39;5.33;;;4.90;;
17372;SDS011;8803;48.116;11.590;2022-08-19T02:30:44;5.63;;;5.13;;
17372;SDS011;8803;48.116;11.590;2022-08-19T02:32:48;5.10;;;4.17;;
17372;SDS011;8803;48.116;11.590;2022-08-19T02:35:02;4.70;;;4.30;;
17372;SDS011;8803;48.116;11.590;2022-08-19T02:37:07;5.50;;;4.43;;
17372;SDS011;8803;48.116;11.590;2022-08-19T02:39:13;5.10;;;4.60;;
17372;SDS011;8803;48.116;11.590;2022-08-19T02:41:17;4.70;;;4.30;;
17372;SDS011;8803;48.116;11.590;2022-08-19T02:43:23;4.50;;;4.13;;
17372;SDS011;8803;48.116;11.590;2022-08-19T02:45:37;5.22;;;4.72;;
17372;SDS011;8803;48.116;11.590;2022-08-19T02:47:41;4.27;;;3.87;;
17372;SDS011;8803;48.116;11.590;2022-08-19T02:49:45;3.70;;;3.40;;
17372;SDS011;8803;48.116;11.590;2022-08-19T02:51:58;4.50;;;4.15;;
17372;SDS011;8803;48.116;11.590;2022-08-19T02:54:01;4.33;;;3.93;;
17372;SDS011;8803;48.116;11.590;2022-08-19T02:56:14;4.30;;;3.90;;
17372;SDS011;8803;48.116;11.590;2022-08-19T02:58:19;4.20;;;3.90;;
17372;SDS011;8803;48.116;11.590;2022-08-19T03:00:32;4.17;;;3.87;;
17372;SDS011;8803;48.116;11.590;2022-08-19T03:02:36;4.67;;;4.27;;
17372;SDS011;8803;48.116;11.590;2022-08-19T03:04:49;4.10;;;3.80;;
17372;SDS011;8803;48.116;11.590;2022-08-19T03:06:54;3.50;;;3.20;;
17372;SDS011;8803;48.116;11.590;2022-08-19T03:08:58;4.30;;;3.97;;
17372;SDS011;8803;48.116;11.590;2022-08-19T03:11:02;5.00;;;4.47;;
17372;SDS011;8803;48.116;11.590;2022-08-19T03:13:06;3.98;;;3.67;;
17372;SDS011;8803;48.116;11.590;2022-08-19T03:15:19;5.67;;;4.67;;
17372;SDS011;8803;48.116;11.590;2022-08-19T03:17:23;4.27;;;3.97;;
17372;SDS011;8803;48.116;11.590;2022-08-19T03:19:27;3.70;;;3.40;;
17372;SDS011;8803;48.116;11.590;2022-08-19T03:23:43;4.73;;;4.33;;
17372;SDS011;8803;48.116;11.590;2022-08-19T03:25:47;4.17;;;3.87;;
17372;SDS011;8803;48.116;11.590;2022-08-19T03:27:53;4.57;;;4.17;;
17372;SDS011;8803;48.116;11.590;2022-08-19T03:30:07;4.40;;;4.10;;
17372;SDS011;8803;48.116;11.590;2022-08-19T03:32:12;4.37;;;3.97;;
17372;SDS011;8803;48.116;11.590;2022-08-19T03:34:25;4.67;;;3.60;;
17372;SDS011;8803;48.116;11.590;2022-08-19T03:36:31;4.70;;;4.30;;
17372;SDS011;8803;48.116;11.590;2022-08-19T03:38:35;4.60;;;4.20;;
17372;SDS011;8803;48.116;11.590;2022-08-19T03:40:41;4.50;;;4.20;;
17372;SDS011;8803;48.116;11.590;2022-08-19T03:42:44;4.40;;;4.00;;
17372;SDS011;8803;48.116;11.590;2022-08-19T03:44:57;4.50;;;4.10;;
17372;SDS011;8803;48.116;11.590;2022-08-19T03:47:01;4.57;;;4.17;;
17372;SDS011;8803;48.116;11.590;2022-08-19T03:49:06;4.20;;;3.90;;
17372;SDS011;8803;48.116;11.590;2022-08-19T03:51:15;4.50;;;4.10;;
17372;SDS011;8803;48.116;11.590;2022-08-19T03:53:28;4.67;;;4.27;;
17372;SDS011;8803;48.116;11.590;2022-08-19T03:55:33;4.13;;;3.83;;
17372;SDS011;8803;48.116;11.590;2022-08-19T03:57:45;4.00;;;3.70;;
17372;SDS011;8803;48.116;11.590;2022-08-19T03:59:49;3.83;;;3.53;;
17372;SDS011;8803;48.116;11.590;2022-08-19T04:01:53;4.23;;;3.93;;
17372;SDS011;8803;48.116;11.590;2022-08-19T04:04:06;3.73;;;3.43;;
17372;SDS011;8803;48.116;11.590;2022-08-19T04:06:11;4.10;;;3.80;;
17372;SDS011;8803;48.116;11.590;2022-08-19T04:08:16;4.62;;;4.22;;
17372;SDS011;8803;48.116;11.590;2022-08-19T04:10:30;3.83;;;3.53;;
17372;SDS011;8803;48.116;11.590;2022-08-19T04:12:36;4.00;;;3.70;;
17372;SDS011;8803;48.116;11.590;2022-08-19T04:14:49;4.30;;;4.00;;
17372;SDS011;8803;48.116;11.590;2022-08-19T04:16:53;4.00;;;3.70;;
17372;SDS011;8803;48.116;11.590;2022-08-19T04:18:56;3.70;;;3.40;;
17372;SDS011;8803;48.116;11.590;2022-08-19T04:21:15;3.67;;;3.37;;
17372;SDS011;8803;48.116;11.590;2022-08-19T04:23:18;4.17;;;3.87;;
17372;SDS011;8803;48.116;11.590;2022-08-19T04:25:34;5.15;;;4.22;;
17372;SDS011;8803;48.116;11.590;2022-08-19T04:27:40;3.93;;;3.63;;
17372;SDS011;8803;48.116;11.590;2022-08-19T04:29:46;4.43;;;4.03;;
17372;SDS011;8803;48.116;11.590;2022-08-19T04:34:02;4.27;;;3.97;;
17372;SDS011;8803;48.116;11.590;2022-08-19T04:36:07;4.70;;;4.30;;
17372;SDS011;8803;48.116;11.590;2022-08-19T04:38:26;4.97;;;4.47;;
17372;SDS011;8803;48.116;11.590;2022-08-19T04:40:30;4.90;;;4.50;;
17372;SDS011;8803;48.116;11.590;2022-08-19T04:42:43;5.03;;;4.63;;
17372;SDS011;8803;48.116;11.590;2022-08-19T04:44:47;4.30;;;4.00;;
17372;SDS011;8803;48.116;11.590;2022-08-19T04:47:02;4.97;;;4.33;;
17372;SDS011;8803;48.116;11.590;2022-08-19T04:49:07;5.53;;;5.00;;
17372;SDS011;8803;48.116;11.590;2022-08-19T04:51:12;5.00;;;4.53;;
17372;SDS011;8803;48.116;11.590;2022-08-19T04:55:28;4.85;;;4.45;;
17372;SDS011;8803;48.116;11.590;2022-08-19T04:57:32;5.63;;;5.13;;
17372;SDS011;8803;48.116;11.590;2022-08-19T04:59:36;5.40;;;4.90;;
17372;SDS011;8803;48.116;11.590;2022-08-19T05:01:49;5.22;;;4.72;;
17372;SDS011;8803;48.116;11.590;2022-08-19T05:03:53;6.07;;;4.30;;
17372;SDS011;8803;48.116;11.590;2022-08-19T05:06:06;5.00;;;4.50;;
17372;SDS011;8803;48.116;11.590;2022-08-19T05:08:12;4.20;;;3.90;;
17372;SDS011;8803;48.116;11.590;2022-08-19T05:10:20;4.57;;;4.17;;
17372;SDS011;8803;48.116;11.590;2022-08-19T05:12:35;4.83;;;4.43;;
17372;SDS011;8803;48.116;11.590;2022-08-19T05:14:40;5.00;;;4.50;;
17372;SDS011;8803;48.116;11.590;2022-08-19T05:16:52;4.40;;;4.10;;
17372;SDS011;8803;48.116;11.590;2022-08-19T05:18:56;5.60;;;5.10;;
17372;SDS011;8803;48.116;11.590;2022-08-19T05:21:19;5.27;;;4.50;;
17372;SDS011;8803;48.116;11.590;2022-08-19T05:23:41;4.97;;;4.57;;
17372;SDS011;8803;48.116;11.590;2022-08-19T05:25:54;4.83;;;4.42;;
17372;SDS011;8803;48.116;11.590;2022-08-19T05:27:57;5.07;;;4.47;;
17372;SDS011;8803;48.116;11.590;2022-08-19T05:30:12;5.03;;;4.63;;
17372;SDS011;8803;48.116;11.590;2022-08-19T05:32:16;4.80;;;4.40;;
17372;SDS011;8803;48.116;11.590;2022-08-19T05:34:29;6.57;;;4.80;;
17372;SDS011;8803;48.116;11.590;2022-08-19T05:36:37;5.23;;;4.60;;
17372;SDS011;8803;48.116;11.590;2022-08-19T05:38:47;4.75;;;4.25;;
17372;SDS011;8803;48.116;11.590;2022-08-19T05:40:53;4.97;;;4.47;;
17372;SDS011;8803;48.116;11.590;2022-08-19T05:43:06;4.57;;;4.17;;
17372;SDS011;8803;48.116;11.590;2022-08-19T05:45:11;4.87;;;4.47;;
17372;SDS011;8803;48.116;11.590;2022-08-19T05:47:23;4.80;;;4.40;;
17372;SDS011;8803;48.116;11.590;2022-08-19T05:49:28;4.60;;;4.20;;
17372;SDS011;8803;48.116;11.590;2022-08-19T05:51:34;4.57;;;4.20;;
17372;SDS011;8803;48.116;11.590;2022-08-19T05:53:48;5.27;;;4.77;;
17372;SDS011;8803;48.116;11.590;2022-08-19T05:55:52;5.40;;;4.90;;
17372;SDS011;8803;48.116;11.590;2022-08-19T05:57:55;5.70;;;5.20;;
17372;SDS011;8803;48.116;11.590;2022-08-19T06:00:00;5.27;;;4.77;;
17372;SDS011;8803;48.116;11.590;2022-08-19T06:02:06;6.47;;;5.87;;
17372;SDS011;8803;48.116;11.590;2022-08-19T06:04:19;6.63;;;6.00;;
17372;SDS011;8803;48.116;11.590;2022-08-19T06:06:23;6.20;;;5.70;;
17372;SDS011;8803;48.116;11.590;2022-08-19T06:08:27;5.93;;;5.33;;
17372;SDS011;8803;48.116;11.590;2022-08-19T06:10:32;7.03;;;6.33;;
17372;SDS011;8803;48.116;11.590;2022-08-19T06:12:37;7.00;;;6.10;;
17372;SDS011;8803;48.116;11.590;2022-08-19T06:14:49;9.10;;;6.67;;
17372;SDS011;8803;48.116;11.590;2022-08-19T06:16:55;8.43;;;7.63;;
17372;SDS011;8803;48.116;11.590;2022-08-19T06:19:01;8.43;;;7.63;;
17372;SDS011;8803;48.116;11.590;2022-08-19T06:21:07;7.67;;;6.90;;
17372;SDS011;8803;48.116;11.590;2022-08-19T06:23:11;7.67;;;6.97;;
17372;SDS011;8803;48.116;11.590;2022-08-19T06:25:24;8.47;;;7.77;;
17372;SDS011;8803;48.116;11.590;2022-08-19T06:27:28;9.50;;;8.60;;
17372;SDS011;8803;48.116;11.590;2022-08-19T06:29:33;8.60;;;7.80;;
17372;SDS011;8803;48.116;11.590;2022-08-19T06:31:40;8.90;;;8.10;;
17372;SDS011;8803;48.116;11.590;2022-08-19T06:33:45;9.43;;;8.53;;
17372;SDS011;8803;48.116;11.590;2022-08-19T06:35:57;9.33;;;8.43;;
17372;SDS011;8803;48.116;11.590;2022-08-19T06:38:01;9.28;;;8.45;;
17372;SDS011;8803;48.116;11.590;2022-08-19T06:40:07;9.33;;;8.53;;
17372;SDS011;8803;48.116;11.590;2022-08-19T06:42:13;8.60;;;7.70;;
17372;SDS011;8803;48.116;11.590;2022-08-19T06:44:29;8.93;;;8.03;;
17372;SDS011;8803;48.116;11.590;2022-08-19T06:46:35;10.83;;;9.77;;
17372;SDS011;8803;48.116;11.590;2022-08-19T06:48:40;9.47;;;8.50;;
17372;SDS011;8803;48.116;11.590;2022-08-19T06:50:44;9.30;;;8.40;;
17372;SDS011;8803;48.116;11.590;2022-08-19T06:52:49;9.43;;;8.47;;
17372;SDS011;8803;48.116;11.590;2022-08-19T06:55:04;8.83;;;7.92;;
17372;SDS011;8803;48.116;11.590;2022-08-19T06:57:10;8.93;;;8.13;;
17372;SDS011;8803;48.116;11.590;2022-08-19T06:59:18;9.53;;;8.60;;
17372;SDS011;8803;48.116;11.590;2022-08-19T07:01:30;8.55;;;7.80;;
17372;SDS011;8803;48.116;11.590;2022-08-19T07:05:49;8.83;;;8.03;;
17372;SDS011;8803;48.116;11.590;2022-08-19T07:07:53;8.37;;;7.57;;
17372;SDS011;8803;48.116;11.590;2022-08-19T07:09:58;10.90;;;8.50;;
17372;SDS011;8803;48.116;11.590;2022-08-19T07:12:02;7.63;;;6.93;;
17372;SDS011;8803;48.116;11.590;2022-08-19T07:14:16;9.00;;;8.20;;
17372;SDS011;8803;48.116;11.590;2022-08-19T07:16:22;10.07;;;9.13;;
17372;SDS011;8803;48.116;11.590;2022-08-19T07:18:26;9.83;;;8.93;;
17372;SDS011;8803;48.116;11.590;2022-08-19T07:20:30;9.25;;;8.38;;
17372;SDS011;8803;48.116;11.590;2022-08-19T07:22:33;9.87;;;8.57;;
17372;SDS011;8803;48.116;11.590;2022-08-19T07:24:38;10.27;;;9.30;;
17372;SDS011;8803;48.116;11.590;2022-08-19T07:26:51;10.00;;;9.17;;
17372;SDS011;8803;48.116;11.590;2022-08-19T07:28:56;10.17;;;9.17;;
17372;SDS011;8803;48.116;11.590;2022-08-19T07:31:10;10.07;;;9.17;;
17372;SDS011;8803;48.116;11.590;2022-08-19T07:33:16;11.10;;;10.10;;
17372;SDS011;8803;48.116;11.590;2022-08-19T07:35:31;9.27;;;8.43;;
17372;SDS011;8803;48.116;11.590;2022-08-19T07:37:35;10.30;;;9.40;;
17372;SDS011;8803;48.116;11.590;2022-08-19T07:39:41;11.17;;;10.17;;
17372;SDS011;8803;48.116;11.590;2022-08-19T07:41:54;11.33;;;10.23;;
17372;SDS011;8803;48.116;11.590;2022-08-19T07:43:59;10.07;;;9.17;;
17372;SDS011;8803;48.116;11.590;2022-08-19T07:46:05;11.10;;;10.07;;
17372;SDS011;8803;48.116;11.590;2022-08-19T07:48:18;11.22;;;10.20;;
17372;SDS011;8803;48.116;11.590;2022-08-19T07:50:21;11.97;;;10.88;;
17372;SDS011;8803;48.116;11.590;2022-08-19T07:52:25;10.80;;;9.80;;
17372;SDS011;8803;48.116;11.590;2022-08-19T07:54:38;11.70;;;10.60;;
17372;SDS011;8803;48.116;11.590;2022-08-19T07:56:42;11.45;;;10.38;;
17372;SDS011;8803;48.116;11.590;2022-08-19T07:58:47;11.97;;;10.77;;
17372;SDS011;8803;48.116;11.590;2022-08-19T08:00:52;11.50;;;10.33;;
17372;SDS011;8803;48.116;11.590;2022-08-19T08:02:56;11.97;;;10.83;;
17372;SDS011;8803;48.116;11.590;2022-08-19T08:05:00;15.80;;;14.07;;
17372;SDS011;8803;48.116;11.590;2022-08-19T08:07:12;13.77;;;12.47;;
17372;SDS011;8803;48.116;11.590;2022-08-19T08:09:36;13.00;;;11.70;;
17372;SDS011;8803;48.116;11.590;2022-08-19T08:11:43;13.03;;;11.73;;
17372;SDS011;8803;48.116;11.590;2022-08-19T08:13:55;12.27;;;11.17;;
17372;SDS011;8803;48.116;11.590;2022-08-19T08:15:59;14.23;;;12.73;;
17372;SDS011;8803;48.116;11.590;2022-08-19T08:18:03;11.43;;;10.37;;
17372;SDS011;8803;48.116;11.590;2022-08-19T08:20:08;12.20;;;11.00;;
17372;SDS011;8803;48.116;11.590;2022-08-19T08:24:24;13.03;;;11.83;;
17372;SDS011;8803;48.116;11.590;2022-08-19T08:26:29;12.03;;;10.77;;
17372;SDS011;8803;48.116;11.590;2022-08-19T08:28:41;11.13;;;10.13;;
17372;SDS011;8803;48.116;11.590;2022-08-19T08:30:46;13.37;;;12.17;;
17372;SDS011;8803;48.116;11.590;2022-08-19T08:32:51;12.50;;;11.30;;
17372;SDS011;8803;48.116;11.590;2022-08-19T08:35:05;11.77;;;10.67;;
17372;SDS011;8803;48.116;11.590;2022-08-19T08:37:11;11.07;;;10.03;;
17372;SDS011;8803;48.116;11.590;2022-08-19T08:39:15;12.87;;;11.67;;
17372;SDS011;8803;48.116;11.590;2022-08-19T08:41:22;14.10;;;12.80;;
17372;SDS011;8803;48.116;11.590;2022-08-19T08:43:29;13.22;;;11.93;;
17372;SDS011;8803;48.116;11.590;2022-08-19T08:47:48;13.13;;;11.93;;
17372;SDS011;8803;48.116;11.590;2022-08-19T08:49:54;13.43;;;12.23;;
17372;SDS011;8803;48.116;11.590;2022-08-19T08:52:04;13.08;;;11.78;;
17372;SDS011;8803;48.116;11.590;2022-08-19T08:54:17;12.63;;;11.38;;
17372;SDS011;8803;48.116;11.590;2022-08-19T08:56:23;13.17;;;11.87;;
17372;SDS011;8803;48.116;11.590;2022-08-19T08:58:30;14.05;;;12.75;;
17372;SDS011;8803;48.116;11.590;2022-08-19T09:00:44;13.83;;;12.33;;
17372;SDS011;8803;48.116;11.590;2022-08-19T09:02:48;11.30;;;10.30;;
17372;SDS011;8803;48.116;11.590;2022-08-19T09:04:53;12.80;;;11.60;;
17372;SDS011;8803;48.116;11.590;2022-08-19T09:07:25;11.80;;;10.70;;
17372;SDS011;8803;48.116;11.590;2022-08-19T09:09:32;13.37;;;11.40;;
17372;SDS011;8803;48.116;11.590;2022-08-19T09:11:40;12.43;;;11.33;;
17372;SDS011;8803;48.116;11.590;2022-08-19T09:14:02;12.67;;;11.37;;
17372;SDS011;8803;48.116;11.590;2022-08-19T09:16:10;11.87;;;10.77;;
17372;SDS011;8803;48.116;11.590;2022-08-19T09:18:17;13.80;;;12.40;;
17372;SDS011;8803;48.116;11.590;2022-08-19T09:20:29;12.83;;;11.63;;
17372;SDS011;8803;48.116;11.590;2022-08-19T09:22:33;11.60;;;10.40;;
17372;SDS011;8803;48.116;11.590;2022-08-19T09:24:48;13.00;;;11.70;;
17372;SDS011;8803;48.116;11.590;2022-08-19T09:26:53;12.60;;;11.40;;
17372;SDS011;8803;48.116;11.590;2022-08-19T09:28:57;12.57;;;10.30;;
17372;SDS011;8803;48.116;11.590;2022-08-19T09:31:11;11.80;;;10.80;;
17372;SDS011;8803;48.116;11.590;2022-08-19T09:33:16;12.30;;;11.10;;
17372;SDS011;8803;48.116;11.590;2022-08-19T09:35:30;11.80;;;10.70;;
17372;SDS011;8803;48.116;11.590;2022-08-19T09:37:34;12.00;;;10.90;;
17372;SDS011;8803;48.116;11.590;2022-08-19T09:39:38;11.33;;;10.28;;
17372;SDS011;8803;48.116;11.590;2022-08-19T09:43:55;10.67;;;9.77;;
17372;SDS011;8803;48.116;11.590;2022-08-19T09:46:00;12.27;;;11.07;;
17372;SDS011;8803;48.116;11.590;2022-08-19T09:48:16;11.03;;;9.93;;
17372;SDS011;8803;48.116;11.590;2022-08-19T09:50:22;12.77;;;11.57;;
17372;SDS011;8803;48.116;11.590;2022-08-19T09:52:26;12.30;;;11.13;;
17372;SDS011;8803;48.116;11.590;2022-08-19T09:54:30;11.43;;;10.43;;
17372;SDS011;8803;48.116;11.590;2022-08-19T09:56:42;12.43;;;11.23;;
17372;SDS011;8803;48.116;11.590;2022-08-19T09:58:46;25.57;;;22.87;;
17372;SDS011;8803;48.116;11.590;2022-08-19T10:00:59;13.77;;;12.40;;
17372;SDS011;8803;48.116;11.590;2022-08-19T10:03:04;12.93;;;11.63;;
17372;SDS011;8803;48.116;11.590;2022-08-19T10:05:16;11.85;;;10.50;;
17372;SDS011;8803;48.116;11.590;2022-08-19T10:07:38;11.10;;;10.10;;
17372;SDS011;8803;48.116;11.590;2022-08-19T10:09:42;11.30;;;10.08;;
17372;SDS011;8803;48.116;11.590;2022-08-19T10:11:46;11.68;;;10.58;;
17372;SDS011;8803;48.116;11.590;2022-08-19T10:13:58;9.73;;;8.83;;
17372;SDS011;8803;48.116;11.590;2022-08-19T10:16:04;10.30;;;9.40;;
17372;SDS011;8803;48.116;11.590;2022-08-19T10:18:09;11.60;;;9.48;;
17372;SDS011;8803;48.116;11.590;2022-08-19T10:20:13;11.20;;;10.20;;
17372;SDS011;8803;48.116;11.590;2022-08-19T10:22:26;10.58;;;9.53;;
17372;SDS011;8803;48.116;11.590;2022-08-19T10:24:30;10.55;;;9.55;;
17372;SDS011;8803;48.116;11.590;2022-08-19T10:26:44;9.90;;;9.00;;
17372;SDS011;8803;48.116;11.590;2022-08-19T10:28:49;9.65;;;8.75;;
17372;SDS011;8803;48.116;11.590;2022-08-19T10:31:04;10.88;;;9.88;;
17372;SDS011;8803;48.116;11.590;2022-08-19T10:33:08;10.82;;;9.78;;
17372;SDS011;8803;48.116;11.590;2022-08-19T10:35:22;10.15;;;9.20;;
17372;SDS011;8803;48.116;11.590;2022-08-19T10:37:27;10.05;;;9.15;;
17372;SDS011;8803;48.116;11.590;2022-08-19T10:39:32;10.17;;;9.27;;
17372;SDS011;8803;48.116;11.590;2022-08-19T10:41:37;9.98;;;8.93;;
17372;SDS011;8803;48.116;11.590;2022-08-19T10:43:56;10.90;;;9.83;;
17372;SDS011;8803;48.116;11.590;2022-08-19T10:46:01;10.75;;;9.05;;
17372;SDS011;8803;48.116;11.590;2022-08-19T10:48:15;10.88;;;9.88;;
17372;SDS011;8803;48.116;11.590;2022-08-19T10:50:19;10.53;;;9.53;;
17372;SDS011;8803;48.116;11.590;2022-08-19T10:52:31;11.12;;;9.93;;
17372;SDS011;8803;48.116;11.590;2022-08-19T10:54:35;9.48;;;8.58;;
17372;SDS011;8803;48.116;11.590;2022-08-19T10:56:48;10.85;;;9.75;;
17372;SDS011;8803;48.116;11.590;2022-08-19T10:58:56;11.60;;;10.50;;
17372;SDS011;8803;48.116;11.590;2022-08-19T11:01:00;10.95;;;9.85;;
17372;SDS011;8803;48.116;11.590;2022-08-19T11:03:04;9.90;;;8.90;;
17372;SDS011;8803;48.116;11.590;2022-08-19T11:05:16;10.93;;;9.93;;
17372;SDS011;8803;48.116;11.590;2022-08-19T11:07:22;10.32;;;9.40;;
17372;SDS011;8803;48.116;11.590;2022-08-19T11:09:27;10.43;;;9.53;;
17372;SDS011;8803;48.116;11.590;2022-08-19T11:11:31;10.23;;;9.33;;
17372;SDS011;8803;48.116;11.590;2022-08-19T11:13:44;9.28;;;8.40;;
17372;SDS011;8803;48.116;11.590;2022-08-19T11:15:48;8.55;;;7.78;;
17372;SDS011;8803;48.116;11.590;2022-08-19T11:17:59;7.90;;;7.20;;
17372;SDS011;8803;48.116;11.590;2022-08-19T11:20:13;8.03;;;7.33;;
17372;SDS011;8803;48.116;11.590;2022-08-19T11:22:17;6.92;;;6.33;;
17372;SDS011;8803;48.116;11.590;2022-08-19T11:24:30;8.00;;;7.30;;
17372;SDS011;8803;48.116;11.590;2022-08-19T11:26:35;7.28;;;6.62;;
17372;SDS011;8803;48.116;11.590;2022-08-19T11:28:40;6.28;;;5.65;;
17372;SDS011;8803;48.116;11.590;2022-08-19T11:30:45;7.03;;;6.35;;
17372;SDS011;8803;48.116;11.590;2022-08-19T11:32:48;6.60;;;6.00;;
17372;SDS011;8803;48.116;11.590;2022-08-19T11:34:52;6.95;;;6.35;;
17372;SDS011;8803;48.116;11.590;2022-08-19T11:37:05;7.10;;;6.50;;
17372;SDS011;8803;48.116;11.590;2022-08-19T11:39:11;6.70;;;6.10;;
17372;SDS011;8803;48.116;11.590;2022-08-19T11:41:17;7.87;;;7.17;;
17372;SDS011;8803;48.116;11.590;2022-08-19T11:43:24;6.70;;;6.15;;
17372;SDS011;8803;48.116;11.590;2022-08-19T11:45:37;7.45;;;6.85;;
17372;SDS011;8803;48.116;11.590;2022-08-19T11:47:42;7.62;;;6.92;;
17372;SDS011;8803;48.116;11.590;2022-08-19T11:49:47;7.67;;;7.03;;
17372;SDS011;8803;48.116;11.590;2022-08-19T11:51:51;7.87;;;7.17;;
17372;SDS011;8803;48.116;11.590;2022-08-19T11:54:04;6.78;;;6.12;;
17372;SDS011;8803;48.116;11.590;2022-08-19T11:56:09;7.03;;;6.42;;
17372;SDS011;8803;48.116;11.590;2022-08-19T11:58:22;6.00;;;5.50;;
17372;SDS011;8803;48.116;11.590;2022-08-19T12:00:26;5.80;;;5.30;;
17372;SDS011;8803;48.116;11.590;2022-08-19T12:02:30;4.58;;;4.17;;
17372;SDS011;8803;48.116;11.590;2022-08-19T12:04:44;5.45;;;4.95;;
17372;SDS011;8803;48.116;11.590;2022-08-19T12:06:48;5.42;;;4.92;;
17372;SDS011;8803;48.116;11.590;2022-08-19T12:08:52;4.80;;;4.40;;
17372;SDS011;8803;48.116;11.590;2022-08-19T12:10:56;4.83;;;4.42;;
17372;SDS011;8803;48.116;11.590;2022-08-19T12:13:01;4.37;;;4.00;;
17372;SDS011;8803;48.116;11.590;2022-08-19T12:15:14;4.20;;;3.90;;
17372;SDS011;8803;48.116;11.590;2022-08-19T12:17:18;3.90;;;3.60;;
17372;SDS011;8803;48.116;11.590;2022-08-19T12:19:22;3.30;;;3.10;;
17372;SDS011;8803;48.116;11.590;2022-08-19T12:21:27;2.70;;;2.50;;
17372;SDS011;8803;48.116;11.590;2022-08-19T12:23:30;4.65;;;4.25;;
17372;SDS011;8803;48.116;11.590;2022-08-19T12:25:44;2.30;;;2.10;;
17372;SDS011;8803;48.116;11.590;2022-08-19T12:27:51;1.98;;;1.45;;
17372;SDS011;8803;48.116;11.590;2022-08-19T12:29:55;1.85;;;1.75;;
17372;SDS011;8803;48.116;11.590;2022-08-19T12:32:02;1.40;;;1.30;;
17372;SDS011;8803;48.116;11.590;2022-08-19T12:34:14;1.30;;;1.20;;
17372;SDS011;8803;48.116;11.590;2022-08-19T12:36:19;1.52;;;1.32;;
17372;SDS011;8803;48.116;11.590;2022-08-19T12:38:24;1.50;;;1.40;;
17372;SDS011;8803;48.116;11.590;2022-08-19T12:40:28;1.45;;;1.35;;
17372;SDS011;8803;48.116;11.590;2022-08-19T12:42:31;1.30;;;1.20;;
17372;SDS011;8803;48.116;11.590;2022-08-19T12:44:44;1.30;;;1.20;;
17372;SDS011;8803;48.116;11.590;2022-08-19T12:46:48;1.40;;;1.30;;
17372;SDS011;8803;48.116;11.590;2022-08-19T12:49:01;2.08;;;1.87;;
17372;SDS011;8803;48.116;11.590;2022-08-19T12:51:06;5.65;;;5.15;;
17372;SDS011;8803;48.116;11.590;2022-08-19T12:53:13;3.92;;;3.62;;
17372;SDS011;8803;48.116;11.590;2022-08-19T12:55:25;4.20;;;3.72;;
17372;SDS011;8803;48.116;11.590;2022-08-19T12:57:30;1.90;;;1.75;;
17372;SDS011;8803;48.116;11.590;2022-08-19T12:59:36;1.60;;;1.50;;
17372;SDS011;8803;48.116;11.590;2022-08-19T13:01:40;1.90;;;1.80;;